createdAt,value
2019-04-21T00:05:20.012Z,17.53
2019-04-21T00:10:33.475Z,19.27
2019-04-21T00:15:27.200Z,15.60
2019-04-21T00:20:35.270Z,19.03
2019-04-21T00:25:45.813Z,15.37
2019-04-21T00:30:57.646Z,18.20
2019-04-21T00:35:55.220Z,15.17
2019-04-21T00:41:13.712Z,20.07
2019-04-21T00:46:11.957Z,18.67
2019-04-21T00:51:39.832Z,14.57
2019-04-21T00:56:41.371Z,14.70
2019-04-21T01:01:46.266Z,14.90
2019-04-21T01:06:54.406Z,13.90
2019-04-21T01:11:55.380Z,12.37
2019-04-21T01:17:03.850Z,13.17
2019-04-21T01:21:50.374Z,13.53
2019-04-21T01:27:06.359Z,14.43
2019-04-21T01:32:25.533Z,12.83
2019-04-21T01:37:38.519Z,10.53
2019-04-21T01:42:42.982Z,12.70
2019-04-21T01:47:40.895Z,8.67
2019-04-21T01:52:57.387Z,12.67
2019-04-21T01:58:01.960Z,9.37
2019-04-21T02:03:37.522Z,10.03
2019-04-21T02:08:21.587Z,11.07
2019-04-21T02:13:28.207Z,8.88
2019-04-21T02:18:37.959Z,12.13
2019-04-21T02:24:22.291Z,9.13
2019-04-21T02:28:55.269Z,11.40
2019-04-21T02:54:48.139Z,10.03
2019-04-21T03:04:55.057Z,9.93
2019-04-21T03:09:57.929Z,10.23
2019-04-21T03:15:15.624Z,10.37
2019-04-21T03:20:19.139Z,9.63
2019-04-21T03:30:58.794Z,11.47
2019-04-21T03:40:44.411Z,10.40
2019-04-21T03:50:56.403Z,11.00
2019-04-21T03:56:12.459Z,16.37
2019-04-21T04:06:56.058Z,12.77
2019-04-21T04:11:41.531Z,12.97
2019-04-21T04:16:49.506Z,9.87
2019-04-21T04:21:56.554Z,12.75
2019-04-21T04:26:57.779Z,12.50
2019-04-21T04:32:00.917Z,12.07
2019-04-21T04:37:30.268Z,12.80
2019-04-21T04:52:36.255Z,8.53
2019-04-21T04:57:59.096Z,8.15
2019-04-21T05:08:03.324Z,9.13
2019-04-21T05:12:58.776Z,8.37
2019-04-21T05:18:10.389Z,5.87
2019-04-21T05:23:12.118Z,8.30
2019-04-21T05:28:08.841Z,8.87
2019-04-21T05:33:43.053Z,6.93
2019-04-21T05:38:46.568Z,8.73
2019-04-21T05:43:57.513Z,10.60
2019-04-21T05:49:13.921Z,5.70
2019-04-21T05:54:34.280Z,5.30
2019-04-21T05:59:32.409Z,4.30
2019-04-21T06:05:03.054Z,7.37
2019-04-21T06:09:52.553Z,8.57
2019-04-21T06:14:54.761Z,5.47
2019-04-21T06:26:08.108Z,6.83
2019-04-21T06:31:08.107Z,5.10
2019-04-21T06:36:24.051Z,4.37
2019-04-21T06:41:21.557Z,6.83
2019-04-21T06:46:30.832Z,4.63
2019-04-21T07:01:48.773Z,3.40
2019-04-21T07:07:00.779Z,5.27
2019-04-21T07:11:59.908Z,3.40
2019-04-21T07:17:11.529Z,4.07
2019-04-21T07:22:17.754Z,3.40
2019-04-21T07:27:31.981Z,7.93
2019-04-21T07:32:36.381Z,6.30
2019-04-21T07:37:35.094Z,5.95
2019-04-21T07:42:39.973Z,4.97
2019-04-21T07:47:57.934Z,9.23
2019-04-21T07:53:30.323Z,6.20
2019-04-21T07:58:36.377Z,3.63
2019-04-21T08:03:42.820Z,5.58
2019-04-21T08:08:49.000Z,6.10
2019-04-21T08:13:51.962Z,8.80
2019-04-21T08:19:00.740Z,7.20
2019-04-21T08:24:13.562Z,8.70
2019-04-21T08:29:19.147Z,5.77
2019-04-21T08:34:23.529Z,4.93
2019-04-21T08:39:33.193Z,6.90
2019-04-21T08:49:41.437Z,5.53
2019-04-21T08:54:55.825Z,4.57
2019-04-21T09:00:05.380Z,4.80
2019-04-21T09:05:15.536Z,3.90
2019-04-21T09:10:17.570Z,4.90
2019-04-21T09:15:30.038Z,5.05
2019-04-21T09:20:38.733Z,9.78
2019-04-21T09:30:37.345Z,4.70
2019-04-21T09:35:36.078Z,5.80
2019-04-21T09:40:45.873Z,6.87
2019-04-21T09:45:49.618Z,5.60
2019-04-21T09:50:55.208Z,6.33
2019-04-21T09:56:04.914Z,5.07
2019-04-21T10:01:18.568Z,4.43
2019-04-21T10:06:17.354Z,6.17
2019-04-21T10:11:22.635Z,4.03
2019-04-21T10:16:32.223Z,3.27
2019-04-21T10:21:38.085Z,4.97
2019-04-21T10:26:43.274Z,4.20
2019-04-21T10:31:48.667Z,6.87
2019-04-21T10:36:55.238Z,4.93
2019-04-21T10:42:01.492Z,6.17
2019-04-21T10:47:06.979Z,9.17
2019-04-21T10:52:20.138Z,5.70
2019-04-21T10:57:28.342Z,4.40
